Thursday, August 24, 2017, 1:03 AM EDT

KDYL, Doylestown Airport

Location: Doylestown, PA, United States Lat: 40.333
Local Time: 1:03 AM EDT ( 5:03 GMT) Lon: -75.117
Time Zone: US/Eastern Elev: 393 ft

Show me the last for .
Show Decoded

2017-08-23 23:54 METAR KDYL 240354Z AUTO 00000KT 10SM CLR 16/14 A2990 RMK AO2 SLP121 T01610144 =
2017-08-23 22:54 METAR KDYL 240254Z AUTO 00000KT 10SM CLR 17/15 A2989 RMK AO2 SLP117 T01720150
                 51005 =
2017-08-23 21:54 METAR KDYL 240154Z AUTO 00000KT 10SM CLR 18/15 A2988 RMK AO2 SLP116 T01780150 =
2017-08-23 20:54 METAR KDYL 240054Z AUTO 00000KT 10SM CLR 19/16 A2989 RMK AO2 SLP118 T01890156 =
2017-08-23 19:54 METAR KDYL 232354Z AUTO 00000KT 10SM CLR 21/14 A2987 RMK AO2 SLP111 T02110144
                 10272 20211 53005 =
2017-08-23 18:54 METAR KDYL 232254Z AUTO 31005KT 10SM CLR 24/13 A2985 RMK AO2 SLP104 T02440128 =
2017-08-23 17:54 METAR KDYL 232154Z AUTO 33005KT 10SM CLR 26/13 A2985 RMK AO2 SLP102 T02610133 =
2017-08-23 16:54 METAR KDYL 232054Z AUTO 30007KT 10SM CLR 26/13 A2986 RMK AO2 SLP105 T02610128
                 56005 =
2017-08-23 15:54 METAR KDYL 231954Z AUTO VRB04KT 10SM CLR 27/12 A2986 RMK AO2 SLP105 T02670122 =
2017-08-23 14:54 METAR KDYL 231854Z AUTO 28008KT 240V300 10SM CLR 27/12 A2986 RMK AO2 SLP106
                 T02670122 $ =
2017-08-23 13:54 METAR KDYL 231754Z AUTO 29005KT 10SM CLR 26/13 A2987 RMK AO2 SLP110 T02610128
                 10267 20217 56003 $ =
2017-08-23 12:54 METAR KDYL 231654Z AUTO 33007KT 10SM CLR 26/13 A2987 RMK AO2 SLP110 T02560133 $
                 =
2017-08-23 11:54 METAR KDYL 231554Z AUTO 30008KT 10SM CLR 25/13 A2988 RMK AO2 SLP112 T02500133 $
                 =
2017-08-23 10:54 METAR KDYL 231454Z AUTO 36004KT 10SM CLR 24/15 A2988 RMK AO2 SLP114 T02440150
                 51017 $ =
2017-08-23 10:42 METAR KDYL 231442Z AUTO 35007KT 10SM FEW002 24/15 A2988 RMK AO2 T02390150 $ =
2017-08-23 09:54 METAR KDYL 231354Z AUTO VRB06KT 10SM CLR 23/17 A2987 RMK AO2 SLP107 T02330167 $
                 =
2017-08-23 08:54 METAR KDYL 231254Z AUTO 33007KT 10SM CLR 22/17 A2985 RMK AO2 SLP103 T02220172 $
                 =
2017-08-23 07:54 METAR KDYL 231154Z AUTO VRB04KT 10SM OVC100 22/21 A2983 RMK AO2 SLP095 7////
                 T02220211 10228 20217 53017 $ =
2017-08-23 06:54 METAR KDYL 231054Z AUTO 30003KT 10SM OVC080 22/22 A2981 RMK AO2 SLP088 T02220217
                 $ =
2017-08-23 05:54 METAR KDYL 230954Z AUTO 00000KT 10SM BKN090 22/22 A2980 RMK AO2 SLP083 T02220217
                 $ =
2017-08-23 04:54 METAR KDYL 230854Z AUTO 22004KT 10SM SCT110 22/22 A2978 RMK AO2 SLP078 T02220217
                 55005 $ =
2017-08-23 03:54 METAR KDYL 230754Z AUTO 21004KT 10SM FEW120 22/22 A2978 RMK AO2 SLP076 T02220217
                 $ =
2017-08-23 02:54 METAR KDYL 230654Z AUTO 21003KT 10SM BKN070 22/22 A2979 RMK AO2 SLP080 T02220222
                 $ =
2017-08-23 01:54 METAR KDYL 230554Z AUTO 00000KT 7SM FEW008 BKN085 22/22 A2979 RMK AO2 LTG DSNT S
                 SLP082 6//// T02170217 10289 20217 56010 $ =
2017-08-23 01:09 METAR KDYL 230509Z AUTO VRB03KT 10SM BKN007 BKN110 22/22 A2980 RMK AO2 LTG DSNT
                 SE AND S CIG 006V010 T02220217 $ =

Support USWX by starting your Amazon purchase here.